Rechercher aéroport 
image banner adimage banner adimage banner ad
image banner ad

6CA7 - Palomar Medical Center

Situé à Escondido, United States

ICAO - 6CA7, IATA -

Données fournies par Airmate  

Information générale

Coordonnées: N33°7'21" W117°7'19"
Élévation : 1109 feet MSL.
 
Voir autres Aéroports à California

Données opérationnelles

Special qualification required
Heure actuelle UTC:
Heure actuelle locale:
Météo à : KCRQ - Mc Clellan-Palomar ( 15 km )
METAR: KCRQ 262253Z 25006KT 8SM OVC008 20/18 A2993 RMK AO2 CIG 008V011 SLP134 T02000178
TAF: KCRQ 262109Z 2621/2718 25007KT P6SM OVC012 FM271100 VRB04KT P6SM OVC007
Voir NOTAMs / SUP AIP / TFR affectant cet aéroport [VIEW]
Fréquences de communication: [VIEW]

Pistes:

Coordonnées de l'aéroport

Adresse: Escondido United States

Vue satellite de 6CA7